Time;durP1;ratioP1;P1;durP2;ratioP2;P2;SDS_P1;SDS_P2;PMS_P1;PMS_P2;Temp;Humidity;BMP_temperature;BMP_pressure;BME280_temperature;BME280_humidity;BME280_pressure;Samples;Min_cycle;Max_cycle;Signal;HPM_P1;HPM_P2
2024/04/05 00:00:13;;;;;;;7.18;1.63;;;15.80;99.90;;;;;;5031406;28;20026;-67
2024/04/05 00:02:41;;;;;;;7.32;2.10;;;15.60;99.90;;;;;;5021292;28;20014;-67
2024/04/05 00:05:09;;;;;;;7.10;2.05;;;15.80;99.90;;;;;;5031401;28;20021;-67
2024/04/05 00:07:36;;;;;;;6.90;2.13;;;15.80;99.90;;;;;;5046018;28;20037;-67
2024/04/05 00:10:11;;;;;;;5.30;1.75;;;15.80;99.90;;;;;;5030304;28;20022;-68
2024/04/05 00:12:37;;;;;;;3.67;1.63;;;15.70;99.90;;;;;;5029563;28;20065;-67
2024/04/05 00:15:03;;;;;;;6.85;1.90;;;15.70;99.90;;;;;;5030844;28;20064;-67
2024/04/05 00:17:29;;;;;;;7.85;1.60;;;15.80;99.90;;;;;;5029548;28;20041;-66
2024/04/05 00:19:55;;;;;;;11.57;2.15;;;15.80;99.90;;;;;;5031685;28;20025;-67
2024/04/05 00:22:22;;;;;;;9.40;1.98;;;15.80;99.90;;;;;;5033121;28;20025;-67
2024/04/05 00:24:48;;;;;;;5.70;2.30;;;15.60;99.90;;;;;;5033619;28;20135;-66
2024/04/05 00:27:14;;;;;;;7.68;2.35;;;15.70;99.90;;;;;;5033442;28;20079;-66
2024/04/05 00:29:40;;;;;;;5.18;1.90;;;15.70;99.90;;;;;;5032939;28;20115;-67
2024/04/05 00:32:05;;;;;;;7.65;2.40;;;15.50;99.90;;;;;;5033610;28;20201;-67
2024/04/05 00:34:31;;;;;;;7.30;2.45;;;15.50;99.90;;;;;;5033879;28;20045;-67
2024/04/05 00:36:57;;;;;;;9.43;2.22;;;15.50;99.90;;;;;;5033533;28;20036;-66
2024/04/05 00:39:22;;;;;;;3.85;1.52;;;15.60;99.90;;;;;;5026217;28;20100;-65
2024/04/05 00:41:48;;;;;;;6.07;2.08;;;15.40;99.90;;;;;;5026725;28;20084;-66
2024/04/05 00:44:14;;;;;;;6.43;2.22;;;15.50;99.90;;;;;;5033318;28;20030;-66
2024/04/05 00:46:40;;;;;;;5.70;1.83;;;15.40;99.90;;;;;;5031361;28;20053;-66
2024/04/05 00:49:06;;;;;;;4.68;1.63;;;15.60;99.90;;;;;;5033226;28;20053;-66
2024/04/05 00:51:32;;;;;;;8.02;2.20;;;15.40;99.90;;;;;;5043904;28;20044;-66
2024/04/05 00:53:57;;;;;;;7.65;2.17;;;15.40;99.90;;;;;;5053080;28;20033;-66
2024/04/05 00:56:24;;;;;;;7.55;2.10;;;15.60;99.90;;;;;;5053277;28;20025;-66
2024/04/05 00:58:50;;;;;;;6.15;2.28;;;15.50;99.90;;;;;;5052847;28;20033;-66
2024/04/05 01:01:16;;;;;;;8.13;2.50;;;15.60;99.90;;;;;;5052789;28;20020;-66
2024/04/05 01:03:42;;;;;;;6.32;1.92;;;15.60;99.90;;;;;;5052134;28;20031;-66
2024/04/05 01:06:08;;;;;;;7.38;2.13;;;15.50;99.90;;;;;;5052599;28;20017;-67
2024/04/05 01:08:34;;;;;;;5.30;2.58;;;15.50;99.90;;;;;;5052003;28;20479;-66
2024/04/05 01:11:00;;;;;;;7.93;1.98;;;15.40;99.90;;;;;;5052934;28;20021;-66
2024/04/05 01:13:25;;;;;;;6.22;2.00;;;15.50;99.90;;;;;;5051233;28;20025;-66
2024/04/05 01:15:51;;;;;;;7.20;2.33;;;15.40;99.90;;;;;;5052957;28;20071;-66
2024/04/05 01:18:16;;;;;;;5.72;1.90;;;15.50;99.90;;;;;;5050784;28;20127;-67
2024/04/05 01:20:45;;;;;;;5.03;2.25;;;15.40;99.90;;;;;;5033387;28;20031;-66
2024/04/05 01:23:13;;;;;;;10.70;2.30;;;15.50;99.90;;;;;;5050404;28;20474;-66
2024/04/05 01:25:39;;;;;;;7.13;2.10;;;15.50;99.90;;;;;;5051866;28;20025;-66
2024/04/05 01:28:11;;;;;;;8.90;2.03;;;15.50;99.90;;;;;;5051712;28;20044;-66
2024/04/05 01:30:37;;;;;;;10.13;2.25;;;15.40;99.90;;;;;;5041026;28;20348;-66
2024/04/05 01:33:03;;;;;;;9.30;2.17;;;15.50;99.90;;;;;;5044372;28;20052;-66
2024/04/05 01:35:29;;;;;;;9.13;2.67;;;15.40;99.90;;;;;;5051730;28;20017;-67
2024/04/05 01:37:56;;;;;;;9.15;2.13;;;15.40;99.90;;;;;;5050872;28;20036;-66
2024/04/05 01:40:22;;;;;;;7.32;2.83;;;15.30;99.90;;;;;;5051482;28;20528;-66
2024/04/05 01:42:48;;;;;;;5.30;2.33;;;15.30;99.90;;;;;;5051943;28;20024;-67
2024/04/05 01:45:14;;;;;;;7.75;2.35;;;15.30;99.90;;;;;;5051846;28;20410;-66
2024/04/05 01:47:40;;;;;;;6.68;2.20;;;15.50;99.90;;;;;;5051541;28;20024;-66
2024/04/05 01:50:06;;;;;;;9.48;2.55;;;15.30;99.90;;;;;;5051564;28;20037;-66
2024/04/05 01:52:32;;;;;;;4.07;1.83;;;15.30;99.90;;;;;;5051337;28;20140;-66
2024/04/05 01:54:59;;;;;;;8.20;2.58;;;15.30;99.90;;;;;;5051046;28;20075;-67
2024/04/05 01:57:25;;;;;;;8.15;2.88;;;15.30;99.90;;;;;;5051255;28;20017;-67
2024/04/05 01:59:53;;;;;;;6.32;2.20;;;15.40;99.90;;;;;;5051593;28;20430;-66
2024/04/05 02:02:19;;;;;;;8.52;2.75;;;15.50;99.90;;;;;;5051279;28;20043;-67
2024/04/05 02:04:45;;;;;;;8.38;2.58;;;15.40;99.90;;;;;;5033444;28;20053;-67
2024/04/05 02:07:10;;;;;;;5.75;2.20;;;15.40;99.90;;;;;;5033464;28;20069;-66
2024/04/05 02:09:36;;;;;;;9.32;2.50;;;15.40;99.90;;;;;;5051166;28;20159;-66
2024/04/05 02:12:03;;;;;;;7.15;2.67;;;15.40;99.90;;;;;;5050652;28;20029;-67
2024/04/05 02:14:29;;;;;;;11.73;3.33;;;15.40;99.90;;;;;;5033777;28;20142;-66
2024/04/05 02:16:55;;;;;;;7.47;3.00;;;15.40;99.90;;;;;;5050468;28;20021;-67
2024/04/05 02:19:21;;;;;;;11.57;2.67;;;15.30;99.90;;;;;;5053287;28;20025;-66
2024/04/05 02:21:47;;;;;;;7.00;2.47;;;15.40;99.90;;;;;;5038090;28;20049;-66
2024/04/05 02:24:13;;;;;;;9.18;3.45;;;15.40;99.90;;;;;;5055848;28;20048;-67
2024/04/05 02:26:38;;;;;;;6.43;2.78;;;15.30;99.90;;;;;;5054839;28;20536;-66
2024/04/05 02:29:04;;;;;;;10.85;3.13;;;15.30;99.90;;;;;;5055624;28;20495;-66
2024/04/05 02:31:30;;;;;;;10.50;3.25;;;15.30;99.90;;;;;;5055695;28;20025;-66
2024/04/05 02:33:55;;;;;;;10.15;3.60;;;15.30;99.90;;;;;;5055856;28;20471;-67
2024/04/05 02:36:21;;;;;;;8.77;3.53;;;15.30;99.90;;;;;;5056283;28;20052;-67
2024/04/05 02:38:47;;;;;;;8.95;3.78;;;15.40;99.90;;;;;;5055779;28;20027;-67
2024/04/05 02:41:13;;;;;;;12.50;3.75;;;15.30;99.90;;;;;;5054790;28;20476;-68
2024/04/05 02:43:39;;;;;;;8.73;3.55;;;15.30;99.90;;;;;;5055492;28;20043;-67
2024/04/05 02:46:05;;;;;;;11.75;4.18;;;15.30;99.90;;;;;;5055708;28;20036;-67
2024/04/05 02:48:31;;;;;;;9.57;4.53;;;15.20;99.90;;;;;;5055442;28;20067;-67
2024/04/05 02:50:56;;;;;;;8.45;4.15;;;15.30;99.90;;;;;;5028148;28;20069;-67
2024/04/05 02:53:24;;;;;;;10.35;3.92;;;15.20;99.90;;;;;;5030981;28;20049;-68
2024/04/05 02:55:50;;;;;;;13.88;4.68;;;15.20;99.90;;;;;;5015649;28;20511;-68
2024/04/05 02:58:16;;;;;;;10.30;5.07;;;15.20;99.90;;;;;;5014667;28;20065;-67
2024/04/05 03:00:42;;;;;;;12.75;4.38;;;15.20;99.90;;;;;;5030630;28;20034;-67
2024/04/05 03:03:08;;;;;;;10.23;4.28;;;15.20;99.90;;;;;;5015574;28;20018;-67
2024/04/05 03:05:34;;;;;;;9.55;4.22;;;15.20;99.90;;;;;;5003780;28;20030;-67
2024/04/05 03:07:59;;;;;;;9.48;4.68;;;15.20;99.90;;;;;;5015673;28;20072;-67
2024/04/05 03:10:25;;;;;;;7.53;4.45;;;15.20;99.90;;;;;;5015369;28;20042;-67
2024/04/05 03:12:51;;;;;;;9.77;4.47;;;15.30;99.90;;;;;;5014571;28;20391;-67
2024/04/05 03:15:17;;;;;;;7.65;4.95;;;15.20;99.90;;;;;;5015716;28;20030;-67
2024/04/05 03:17:46;;;;;;;10.07;4.57;;;15.20;99.90;;;;;;5015158;28;20022;-67
2024/04/05 03:20:14;;;;;;;10.50;3.78;;;15.20;99.90;;;;;;5015697;28;20022;-67
2024/04/05 03:22:41;;;;;;;9.73;4.38;;;15.20;99.90;;;;;;5015117;28;20029;-67
2024/04/05 03:25:10;;;;;;;13.25;4.70;;;15.30;99.90;;;;;;5015363;28;20037;-67
2024/04/05 03:27:36;;;;;;;10.13;3.80;;;15.20;99.90;;;;;;5013854;28;20045;-67
2024/04/05 03:30:03;;;;;;;8.30;3.67;;;15.30;99.90;;;;;;5015280;28;20075;-67
2024/04/05 03:32:30;;;;;;;8.13;3.72;;;15.20;99.90;;;;;;5014541;28;20033;-67
2024/04/05 03:34:56;;;;;;;11.32;4.07;;;15.20;99.90;;;;;;5015076;28;20076;-67
2024/04/05 03:37:24;;;;;;;9.23;4.07;;;15.20;99.90;;;;;;5014985;28;20034;-67
2024/04/05 03:39:54;;;;;;;6.72;3.90;;;15.20;99.90;;;;;;5014916;28;20037;-67
2024/04/05 03:42:20;;;;;;;7.80;4.32;;;15.20;99.90;;;;;;5015035;28;20030;-67
2024/04/05 03:44:46;;;;;;;11.38;4.18;;;15.20;99.90;;;;;;5014337;28;20396;-67
2024/04/05 03:47:13;;;;;;;8.98;3.75;;;15.20;99.90;;;;;;5014707;28;20037;-67
2024/04/05 03:49:39;;;;;;;14.95;4.05;;;15.20;99.90;;;;;;5014641;28;20049;-67
2024/04/05 03:52:05;;;;;;;8.95;3.90;;;15.20;99.90;;;;;;5045121;28;20041;-67
2024/04/05 03:54:30;;;;;;;12.30;4.10;;;15.10;99.90;;;;;;5054190;28;20441;-67
2024/04/05 03:56:56;;;;;;;14.15;3.75;;;15.20;99.90;;;;;;5036409;28;20025;-67
2024/04/05 03:59:21;;;;;;;9.18;3.85;;;15.20;99.90;;;;;;5054201;28;20029;-67
2024/04/05 04:01:53;;;;;;;11.48;3.92;;;15.10;99.90;;;;;;5053149;28;20068;-67
2024/04/05 04:04:18;;;;;;;7.75;3.28;;;15.20;99.90;;;;;;5054061;28;20033;-67
2024/04/05 04:06:44;;;;;;;8.32;3.50;;;15.10;99.90;;;;;;5054026;28;20437;-67
2024/04/05 04:09:15;;;;;;;12.05;4.60;;;15.10;99.90;;;;;;5054106;28;20522;-67
2024/04/05 04:11:42;;;;;;;7.07;3.72;;;15.10;99.90;;;;;;5054205;28;20036;-66
2024/04/05 04:14:07;;;;;;;10.80;3.83;;;15.10;99.90;;;;;;5053844;28;20323;-66
2024/04/05 04:16:33;;;;;;;11.18;3.30;;;15.10;99.90;;;;;;5053049;28;20100;-66
2024/04/05 04:18:59;;;;;;;11.95;3.67;;;15.10;99.90;;;;;;5053621;28;20119;-66
2024/04/05 04:21:25;;;;;;;9.57;4.30;;;15.10;99.90;;;;;;5053792;28;20100;-66
2024/04/05 04:23:51;;;;;;;14.35;4.20;;;15.10;99.90;;;;;;5035923;28;20116;-67
2024/04/05 04:26:17;;;;;;;11.43;3.83;;;15.00;99.90;;;;;;5052648;28;20131;-65
2024/04/05 04:28:44;;;;;;;10.68;4.13;;;15.00;99.90;;;;;;5050791;28;20483;-66
2024/04/05 04:31:23;;;;;;;8.38;4.03;;;15.00;99.90;;;;;;5050848;28;20360;-67
2024/04/05 04:33:50;;;;;;;10.60;3.22;;;15.00;99.90;;;;;;5049043;28;20056;-67
2024/04/05 04:36:16;;;;;;;10.18;3.85;;;15.10;99.90;;;;;;5033806;28;20035;-67
2024/04/05 04:38:42;;;;;;;10.02;4.07;;;15.10;99.90;;;;;;5052539;28;20115;-66
2024/04/05 04:41:08;;;;;;;10.40;4.07;;;15.20;99.90;;;;;;5052034;28;20079;-67
2024/04/05 04:43:33;;;;;;;13.25;4.68;;;15.20;99.90;;;;;;5052405;28;20021;-67
2024/04/05 04:45:59;;;;;;;10.20;3.60;;;15.20;99.90;;;;;;5051897;28;20024;-67
2024/04/05 04:48:27;;;;;;;9.23;3.25;;;15.20;99.90;;;;;;5052243;28;20037;-66
2024/04/05 04:50:54;;;;;;;8.85;3.08;;;15.20;99.90;;;;;;5042148;28;20048;-67
2024/04/05 04:53:20;;;;;;;9.85;3.90;;;15.20;99.90;;;;;;5053087;28;20032;-67
2024/04/05 04:55:45;;;;;;;11.05;3.60;;;15.20;99.90;;;;;;5052879;28;20400;-67
2024/04/05 04:58:16;;;;;;;10.52;3.30;;;15.30;99.90;;;;;;5052912;28;20063;-67
2024/04/05 05:00:42;;;;;;;10.38;3.53;;;15.30;99.90;;;;;;5052566;28;20025;-67
2024/04/05 05:03:09;;;;;;;9.88;3.53;;;15.30;99.90;;;;;;5052711;28;20333;-67
2024/04/05 05:05:35;;;;;;;9.43;3.17;;;15.30;99.90;;;;;;5038406;28;20040;-67
2024/04/05 05:08:01;;;;;;;11.02;3.35;;;15.30;99.90;;;;;;5052839;28;20044;-67
2024/04/05 05:10:27;;;;;;;7.40;2.97;;;15.20;99.90;;;;;;5053028;28;20028;-67
2024/04/05 05:12:52;;;;;;;7.88;2.80;;;15.30;99.90;;;;;;5052552;28;20032;-67
2024/04/05 05:15:18;;;;;;;10.50;2.88;;;15.40;99.90;;;;;;5052743;28;20366;-67
2024/04/05 05:17:44;;;;;;;8.80;3.20;;;15.40;99.90;;;;;;5052643;28;20021;-67
2024/04/05 05:20:11;;;;;;;10.23;3.80;;;15.30;99.90;;;;;;5052559;28;20056;-67
2024/04/05 05:22:37;;;;;;;10.23;2.95;;;15.30;99.90;;;;;;5051662;28;20043;-67
2024/04/05 05:25:03;;;;;;;6.63;2.22;;;15.40;99.90;;;;;;5051334;28;20025;-68
2024/04/05 05:27:29;;;;;;;10.65;3.05;;;15.40;99.90;;;;;;5052468;28;20035;-67
2024/04/05 05:29:54;;;;;;;11.65;2.97;;;15.40;99.90;;;;;;5052225;28;20037;-67
2024/04/05 05:32:20;;;;;;;12.45;3.40;;;15.40;99.90;;;;;;5051404;28;20020;-67
2024/04/05 05:34:46;;;;;;;8.48;3.45;;;15.50;99.90;;;;;;5052357;28;20059;-67
2024/04/05 05:37:12;;;;;;;9.52;2.78;;;15.40;99.90;;;;;;5055171;28;20075;-67
2024/04/05 05:39:39;;;;;;;13.55;2.40;;;15.40;99.90;;;;;;5055903;28;20013;-68
2024/04/05 05:42:05;;;;;;;9.13;3.30;;;15.40;99.90;;;;;;5051901;28;20445;-68
2024/04/05 05:44:32;;;;;;;12.43;3.25;;;15.40;99.90;;;;;;5052800;28;20025;-68
2024/04/05 05:46:58;;;;;;;11.80;3.60;;;15.40;99.90;;;;;;5052222;28;20088;-68
2024/04/05 05:49:24;;;;;;;9.63;3.22;;;15.40;99.90;;;;;;5052407;28;20107;-68
2024/04/05 05:51:50;;;;;;;7.53;3.08;;;15.40;99.90;;;;;;5051331;28;20057;-68
2024/04/05 05:54:15;;;;;;;6.63;2.83;;;15.40;99.90;;;;;;5052460;28;20482;-68
2024/04/05 05:56:41;;;;;;;8.13;2.97;;;15.60;99.90;;;;;;5039947;28;20112;-68
2024/04/05 05:59:08;;;;;;;5.90;3.10;;;15.60;99.90;;;;;;5045341;28;20043;-69
2024/04/05 06:01:33;;;;;;;9.82;3.80;;;15.60;99.90;;;;;;5034028;28;20032;-68
2024/04/05 06:04:01;;;;;;;12.90;5.32;;;15.60;99.90;;;;;;5051989;28;20096;-67
2024/04/05 06:06:26;;;;;;;10.30;2.85;;;15.70;99.90;;;;;;5052172;28;20102;-68
2024/04/05 06:08:52;;;;;;;8.60;2.97;;;15.60;99.90;;;;;;5051833;28;20412;-68
2024/04/05 06:11:18;;;;;;;6.60;2.33;;;15.60;99.90;;;;;;5052010;28;20035;-67
2024/04/05 06:13:43;;;;;;;6.82;2.65;;;15.70;99.90;;;;;;5052101;28;20025;-68
2024/04/05 06:16:09;;;;;;;6.68;2.88;;;15.80;99.90;;;;;;5051967;28;20051;-68
2024/04/05 06:18:34;;;;;;;6.28;2.40;;;15.80;99.90;;;;;;5051960;28;20028;-67
2024/04/05 06:21:00;;;;;;;6.95;2.67;;;15.80;99.90;;;;;;5034105;28;20143;-68
2024/04/05 06:23:26;;;;;;;8.60;3.20;;;15.90;99.90;;;;;;5051948;28;20101;-68
2024/04/05 06:25:54;;;;;;;9.35;3.08;;;16.00;99.90;;;;;;5033912;28;20021;-68
2024/04/05 06:28:21;;;;;;;9.80;2.92;;;16.00;99.90;;;;;;5051889;28;20060;-68
2024/04/05 06:30:46;;;;;;;8.35;2.85;;;16.00;99.90;;;;;;5050336;28;20036;-67
2024/04/05 06:33:12;;;;;;;10.82;3.80;;;15.90;99.90;;;;;;5051373;28;20029;-67
2024/04/05 06:35:38;;;;;;;5.25;2.72;;;16.00;99.90;;;;;;5051463;28;20020;-67
2024/04/05 06:38:04;;;;;;;8.40;2.67;;;15.90;99.90;;;;;;5048881;28;20032;-67
2024/04/05 06:40:29;;;;;;;7.80;2.88;;;16.00;99.90;;;;;;5051684;28;20024;-67
2024/04/05 06:42:55;;;;;;;7.35;3.13;;;16.10;99.90;;;;;;5051792;28;20021;-68
2024/04/05 06:45:21;;;;;;;15.93;2.92;;;16.20;99.90;;;;;;5051442;28;20017;-67
2024/04/05 06:47:46;;;;;;;12.70;3.67;;;16.10;99.90;;;;;;5033539;28;20036;-68
2024/04/05 06:50:12;;;;;;;8.98;3.25;;;16.20;99.90;;;;;;5051299;28;20031;-62
2024/04/05 06:52:37;;;;;;;10.43;3.72;;;16.10;99.90;;;;;;5051003;28;20057;-61
2024/04/05 06:55:03;;;;;;;10.85;3.63;;;16.20;99.90;;;;;;5051592;28;20035;-60
2024/04/05 06:57:29;;;;;;;6.85;2.63;;;16.20;99.90;;;;;;5037037;28;20025;-64
2024/04/05 06:59:55;;;;;;;11.80;3.20;;;16.20;99.90;;;;;;5033755;28;20421;-59
2024/04/05 07:02:22;;;;;;;8.80;2.97;;;16.20;99.90;;;;;;5051255;28;20040;-63
2024/04/05 07:04:48;;;;;;;12.27;3.13;;;16.20;99.90;;;;;;5051208;28;20029;-63
2024/04/05 07:07:13;;;;;;;9.10;2.78;;;16.10;99.90;;;;;;5053468;28;20056;-61
2024/04/05 07:09:39;;;;;;;9.43;2.53;;;16.20;99.90;;;;;;5043263;28;20100;-60
2024/04/05 07:12:07;;;;;;;8.70;3.03;;;16.20;99.90;;;;;;5045722;28;20375;-64
2024/04/05 07:14:33;;;;;;;7.88;2.78;;;16.30;99.90;;;;;;5043689;28;20041;-63
2024/04/05 07:16:58;;;;;;;9.93;3.22;;;16.40;99.90;;;;;;5054720;28;20384;-62
2024/04/05 07:19:25;;;;;;;8.02;2.50;;;16.40;99.90;;;;;;5054929;28;20424;-63
2024/04/05 07:21:52;;;;;;;8.43;2.83;;;16.40;99.90;;;;;;5054714;28;20037;-74
2024/04/05 07:24:18;;;;;;;14.10;3.35;;;16.40;99.90;;;;;;5055024;28;20039;-63
2024/04/05 07:26:48;;;;;;;6.68;2.65;;;16.40;99.90;;;;;;5054605;28;20017;-65
2024/04/05 07:29:15;;;;;;;8.15;2.72;;;16.40;99.90;;;;;;5054841;28;20474;-70
2024/04/05 07:31:41;;;;;;;6.30;3.00;;;16.40;99.90;;;;;;5036593;28;20147;-56
2024/04/05 07:34:07;;;;;;;8.80;2.92;;;16.50;99.90;;;;;;5054469;28;20029;-58
2024/04/05 07:36:33;;;;;;;7.22;2.88;;;16.60;99.90;;;;;;5054278;28;20020;-59
2024/04/05 07:38:59;;;;;;;7.95;3.00;;;16.50;99.90;;;;;;5047328;28;20494;-59
2024/04/05 07:41:25;;;;;;;7.53;2.60;;;16.50;99.90;;;;;;5016657;28;20029;-59
2024/04/05 07:43:51;;;;;;;8.85;2.83;;;16.50;99.90;;;;;;5052280;28;20041;-60
2024/04/05 07:46:17;;;;;;;9.57;2.58;;;16.60;99.90;;;;;;5054115;28;20064;-62
2024/04/05 07:48:43;;;;;;;7.97;2.65;;;16.60;99.90;;;;;;5036156;28;20131;-61
2024/04/05 07:54:31;;;;;;;10.02;2.90;;;16.50;99.90;;;;;;5040518;28;20032;-62
2024/04/05 07:56:57;;;;;;;8.57;2.70;;;16.60;99.90;;;;;;5031287;28;20025;-61
2024/04/05 07:59:23;;;;;;;9.10;2.60;;;16.60;99.90;;;;;;5054051;28;20029;-61
2024/04/05 08:01:49;;;;;;;11.63;2.95;;;16.60;99.90;;;;;;5054233;28;20386;-61
2024/04/05 08:04:15;;;;;;;10.02;3.25;;;16.60;99.90;;;;;;5053968;28;20025;-60
2024/04/05 08:06:40;;;;;;;13.50;4.25;;;16.70;99.90;;;;;;5053885;28;20028;-62
2024/04/05 08:09:07;;;;;;;6.97;3.63;;;16.70;99.90;;;;;;5053666;28;20032;-59
2024/04/05 08:11:33;;;;;;;8.55;3.20;;;16.60;99.90;;;;;;5053814;28;20472;-60
2024/04/05 08:13:58;;;;;;;12.73;3.50;;;16.70;99.90;;;;;;5041680;28;20134;-60
2024/04/05 08:16:26;;;;;;;8.98;3.03;;;16.60;99.90;;;;;;5052496;28;20162;-57
2024/04/05 08:18:53;;;;;;;11.43;3.30;;;16.70;99.90;;;;;;5053386;28;20044;-52
2024/04/05 08:21:18;;;;;;;12.05;3.70;;;16.70;99.90;;;;;;5053596;28;20070;-58
2024/04/05 08:23:44;;;;;;;9.10;2.88;;;16.70;99.90;;;;;;5052933;28;20124;-51
2024/04/05 08:26:10;;;;;;;7.47;2.88;;;16.80;99.90;;;;;;5053029;28;20032;-56
2024/04/05 08:28:36;;;;;;;6.05;2.40;;;16.90;99.90;;;;;;5051835;28;20207;-52
2024/04/05 08:31:02;;;;;;;6.47;3.17;;;16.90;99.90;;;;;;5036250;28;20390;-56
2024/04/05 08:33:28;;;;;;;9.93;3.33;;;16.90;99.90;;;;;;5052800;28;20029;-50
2024/04/05 08:35:55;;;;;;;8.35;2.72;;;16.90;99.90;;;;;;5040640;28;20026;-51
2024/04/05 08:38:21;;;;;;;9.48;2.85;;;16.90;99.90;;;;;;5051539;28;20032;-53
2024/04/05 08:40:47;;;;;;;9.40;2.95;;;16.90;99.90;;;;;;5053221;28;20025;-48
2024/04/05 08:43:17;;;;;;;9.18;2.40;;;17.10;99.90;;;;;;5049302;28;20024;-54
2024/04/05 08:45:44;;;;;;;7.55;2.83;;;16.90;99.90;;;;;;5050702;28;20021;-53
2024/04/05 08:48:10;;;;;;;9.68;2.80;;;17.10;99.90;;;;;;5030646;28;20064;-55
2024/04/05 08:50:37;;;;;;;5.80;2.17;;;17.10;99.90;;;;;;5050417;28;20470;-54
2024/04/05 08:53:04;;;;;;;6.43;3.13;;;17.20;99.90;;;;;;5052112;28;20482;-57
2024/04/05 08:55:30;;;;;;;9.32;2.17;;;17.20;99.90;;;;;;5051095;28;20025;-53
2024/04/05 08:57:58;;;;;;;7.28;2.90;;;17.30;99.90;;;;;;5047855;28;20045;-59
2024/04/05 09:00:24;;;;;;;6.75;2.08;;;17.30;99.90;;;;;;5046516;28;20033;-61
2024/04/05 09:03:11;;;;;;;8.50;2.13;;;17.30;99.90;;;;;;5037900;28;20094;-61
2024/04/05 09:05:37;;;;;;;7.60;2.13;;;17.30;99.90;;;;;;5052463;28;20103;-61
2024/04/05 09:08:04;;;;;;;9.93;2.40;;;17.40;99.90;;;;;;5052787;28;20116;-61
2024/04/05 09:10:29;;;;;;;6.28;2.42;;;17.40;99.90;;;;;;5032396;28;20009;-62
2024/04/05 09:12:55;;;;;;;7.70;2.58;;;17.40;99.90;;;;;;5050224;28;20403;-61
2024/04/05 09:15:22;;;;;;;5.78;2.17;;;17.60;99.90;;;;;;5047881;28;20082;-63
2024/04/05 09:17:51;;;;;;;8.93;2.22;;;;;;;;;;5047953;28;20490;-65
2024/04/05 09:20:24;;;;;;;10.25;2.90;;;;;;;;;;5054556;28;20074;-63
2024/04/05 09:23:00;;;;;;;7.22;2.40;;;;;;;;;;5052136;28;20024;-67
2024/04/05 09:25:26;;;;;;;12.20;2.80;;;;;;;;;;5054850;28;20093;-69
2024/04/05 09:28:04;;;;;;;3.40;2.10;;;;;;;;;;5048650;28;20036;-62
2024/04/05 09:30:30;;;;;;;8.48;2.50;;;;;;;;;;5054972;28;20048;-66
2024/04/05 09:32:57;;;;;;;6.88;1.80;;;;;;;;;;5038941;28;20528;-64
2024/04/05 09:35:26;;;;;;;6.75;2.42;;;;;;;;;;5055035;28;20029;-61
2024/04/05 09:37:52;;;;;;;11.27;2.65;;;;;;;;;;5053935;28;20025;-59
2024/04/05 09:40:18;;;;;;;8.95;3.85;;;17.50;99.90;;;;;;5056034;28;20021;-63
2024/04/05 09:42:45;;;;;;;10.68;2.40;;;18.30;99.90;;;;;;5058184;28;20029;-63
2024/04/05 09:45:12;;;;;;;6.95;2.40;;;18.30;99.90;;;;;;5061304;28;20127;-61
2024/04/05 09:47:39;;;;;;;7.53;2.47;;;18.40;99.90;;;;;;5050759;28;20033;-60
2024/04/05 09:50:08;;;;;;;8.20;2.30;;;18.40;99.90;;;;;;5046947;28;20060;-60
2024/04/05 09:52:40;;;;;;;11.40;3.38;;;;;;;;;;5049927;28;20129;-60
2024/04/05 09:55:19;;;;;;;9.45;2.40;;;;;;;;;;5051906;28;20037;-59
2024/04/05 09:57:48;;;;;;;6.47;2.70;;;;;;;;;;5051747;28;20356;-60
2024/04/05 10:00:17;;;;;;;9.93;2.72;;;;;;;;;;5045840;28;20023;-60
2024/04/05 10:02:46;;;;;;;4.97;2.00;;;;;;;;;;5044172;28;20025;-60
2024/04/05 10:05:25;;;;;;;11.90;2.65;;;;;;;;;;5035838;28;20031;-60
2024/04/05 10:07:52;;;;;;;8.18;2.85;;;;;;;;;;5051160;28;20064;-60
2024/04/05 10:10:28;;;;;;;6.78;3.05;;;;;;;;;;5051519;28;20467;-61
2024/04/05 10:12:54;;;;;;;5.63;2.08;;;;;;;;;;5051860;28;20123;-60
2024/04/05 10:15:29;;;;;;;9.38;2.83;;;;;;;;;;5051442;28;20017;-60
2024/04/05 10:24:06;;;;;;;8.15;2.65;;;;;;;;;;5041348;28;20040;-61
2024/04/05 10:26:33;;;;;;;8.18;2.17;;;;;;;;;;5048665;28;20182;-60
2024/04/05 10:29:00;;;;;;;10.75;2.60;;;;;;;;;;5050977;28;20048;-61
2024/04/05 10:31:26;;;;;;;3.15;2.10;;;;;;;;;;5051540;28;20028;-61
2024/04/05 10:33:52;;;;;;;6.28;2.33;;;;;;;;;;5051542;28;20037;-61
2024/04/05 10:36:18;;;;;;;7.95;2.40;;;;;;;;;;5049877;28;20048;-61
2024/04/05 10:38:44;;;;;;;7.82;3.10;;;;;;;;;;5051618;28;20036;-61
2024/04/05 10:41:10;;;;;;;5.57;2.85;;;;;;;;;;5051830;28;20059;-61
2024/04/05 10:43:38;;;;;;;8.90;3.22;;;;;;;;;;5055019;28;20091;-61
2024/04/05 10:46:05;;;;;;;10.70;3.00;;;;;;;;;;5055259;28;20013;-61
2024/04/05 10:48:31;;;;;;;7.15;2.72;;;;;;;;;;5055253;28;20025;-61
2024/04/05 10:50:58;;;;;;;10.10;3.70;;;;;;;;;;5053692;28;20498;-61
2024/04/05 10:53:24;;;;;;;5.07;2.72;;;;;;;;;;5055546;28;20029;-61
2024/04/05 10:55:53;;;;;;;7.38;2.33;;;;;;;;;;5055429;28;20021;-61
2024/04/05 10:58:19;;;;;;;8.38;2.90;;;;;;;;;;5055140;28;20024;-61
2024/04/05 11:00:45;;;;;;;4.70;2.28;;;;;;;;;;5051955;28;20025;-61
2024/04/05 11:03:16;;;;;;;7.60;2.63;;;;;;;;;;5054710;28;20024;-60
2024/04/05 11:05:42;;;;;;;7.40;2.95;;;;;;;;;;5052527;28;20090;-59
2024/04/05 11:08:10;;;;;;;9.38;3.00;;;;;;;;;;5054594;28;20138;-60
2024/04/05 11:10:37;;;;;;;7.35;2.75;;;;;;;;;;5054806;28;20459;-60
2024/04/05 11:13:20;;;;;;;8.75;3.80;;;;;;;;;;5054865;28;20021;-59
2024/04/05 11:15:47;;;;;;;12.13;3.97;;;;;;;;;;5052374;28;20029;-60
2024/04/05 11:18:13;;;;;;;10.38;3.22;;;;;;;;;;5054557;28;20347;-60
2024/04/05 11:20:43;;;;;;;7.53;2.90;;;;;;;;;;5054304;28;20108;-60
2024/04/05 11:23:19;;;;;;;8.15;2.83;;;;;;;;;;5054510;28;20428;-60
2024/04/05 11:25:58;;;;;;;5.15;2.40;;;;;;;;;;5053105;28;20449;-60
2024/04/05 11:28:24;;;;;;;6.60;3.22;;;;;;;;;;5054243;28;20033;-60
2024/04/05 11:30:51;;;;;;;6.72;2.78;;;;;;;;;;5054564;28;20013;-61
2024/04/05 11:33:17;;;;;;;7.13;2.50;;;;;;;;;;5051787;28;20032;-61
2024/04/05 11:35:46;;;;;;;7.80;2.55;;;;;;;;;;5054166;28;20100;-61
2024/04/05 11:38:12;;;;;;;8.63;2.72;;;;;;;;;;5054354;28;20120;-61
2024/04/05 11:40:38;;;;;;;6.30;3.65;;;;;;;;;;5053901;28;20032;-61
2024/04/05 11:43:08;;;;;;;8.35;3.47;;;;;;;;;;5054279;28;20028;-61
2024/04/05 11:45:35;;;;;;;7.88;2.80;;;;;;;;;;5054216;28;20017;-61
2024/04/05 11:48:02;;;;;;;7.55;2.78;;;;;;;;;;5051619;28;20036;-60
2024/04/05 11:50:28;;;;;;;7.78;2.85;;;;;;;;;;5053601;28;20443;-61
2024/04/05 11:52:54;;;;;;;9.18;2.85;;;;;;;;;;5053214;28;20479;-61
2024/04/05 11:55:20;;;;;;;7.00;2.58;;;;;;;;;;5053900;28;20028;-61
2024/04/05 11:57:46;;;;;;;5.35;2.70;;;;;;;;;;5054041;28;20021;-61
2024/04/05 12:00:13;;;;;;;8.60;2.78;;;;;;;;;;5048413;28;20032;-61
2024/04/05 12:02:39;;;;;;;5.03;2.45;;;;;;;;;;5045618;28;20021;-61
2024/04/05 12:05:07;;;;;;;5.95;2.50;;;;;;;;;;5051209;28;20574;-61
2024/04/05 12:07:33;;;;;;;7.75;2.38;;;;;;;;;;5053433;28;20157;-60
2024/04/05 12:09:59;;;;;;;7.97;2.58;;;;;;;;;;5051672;28;20039;-61
2024/04/05 12:12:28;;;;;;;6.50;2.22;;;;;;;;;;5052157;28;20450;-61
2024/04/05 12:14:54;;;;;;;5.32;2.72;;;;;;;;;;5052047;28;20119;-61
2024/04/05 12:17:20;;;;;;;4.25;2.03;;;;;;;;;;5051560;28;20100;-61
2024/04/05 12:19:47;;;;;;;6.20;2.58;;;;;;;;;;5053465;28;20513;-61
2024/04/05 12:22:14;;;;;;;8.23;2.80;;;;;;;;;;5053684;28;20077;-61
2024/04/05 12:24:40;;;;;;;6.05;2.33;;;;;;;;;;5053827;28;20112;-61
2024/04/05 12:27:06;;;;;;;6.72;2.63;;;;;;;;;;5053172;28;20104;-61
2024/04/05 12:29:32;;;;;;;8.35;2.63;;;;;;;;;;5052141;28;20386;-61
2024/04/05 12:31:58;;;;;;;5.78;2.55;;;;;;;;;;5053179;28;20032;-60
2024/04/05 12:34:24;;;;;;;9.80;2.47;;;;;;;;;;5051154;28;20033;-61
2024/04/05 12:36:50;;;;;;;7.05;2.53;;;;;;;;;;5055575;28;20052;-61
2024/04/05 12:39:26;;;;;;;6.07;2.28;;;;;;;;;;5052781;28;20025;-60
2024/04/05 12:41:52;;;;;;;7.00;2.60;;;;;;;;;;5056182;28;20025;-61
2024/04/05 12:44:18;;;;;;;8.80;3.17;;;;;;;;;;5052559;28;20029;-60
2024/04/05 12:46:46;;;;;;;7.43;2.67;;;;;;;;;;5045939;28;20026;-64
2024/04/05 12:49:12;;;;;;;5.90;2.38;;;;;;;;;;5054611;28;20036;-63
2024/04/05 12:51:39;;;;;;;6.72;2.53;;;;;;;;;;5061640;28;20069;-62
2024/04/05 12:54:06;;;;;;;6.63;2.42;;;;;;;;;;5050932;28;20539;-61
2024/04/05 12:56:32;;;;;;;6.07;2.60;;;;;;;;;;5054464;28;20028;-63
2024/04/05 12:58:58;;;;;;;5.97;2.30;;;;;;;;;;5057518;28;20025;-60
2024/04/05 13:01:25;;;;;;;12.10;2.97;;;;;;;;;;5052270;28;20557;-70
2024/04/05 13:03:51;;;;;;;4.47;2.72;;;;;;;;;;5056968;28;20017;-63
2024/04/05 13:06:18;;;;;;;7.70;2.35;;;;;;;;;;5047065;28;20036;-59
2024/04/05 13:08:45;;;;;;;8.50;2.88;;;;;;;;;;5052449;28;20033;-51
2024/04/05 13:11:11;;;;;;;8.52;2.85;;;;;;;;;;5053020;28;20025;-61
2024/04/05 13:13:41;;;;;;;7.13;2.45;;;;;;;;;;5052830;28;20032;-62
2024/04/05 13:16:08;;;;;;;6.53;2.85;;;;;;;;;;5055828;28;20121;-61
2024/04/05 13:18:35;;;;;;;4.53;2.10;;;;;;;;;;5051619;28;20029;-58
2024/04/05 13:21:04;;;;;;;9.18;2.55;;;;;;;;;;5052856;28;20119;-61